Time;durP1;ratioP1;P1;durP2;ratioP2;P2;SDS_P1;SDS_P2;PMS_P1;PMS_P2;Temp;Humidity;BMP_temperature;BMP_pressure;BME280_temperature;BME280_humidity;BME280_pressure;Samples;Min_cycle;Max_cycle;Signal;HPM_P1;HPM_P2
2023/01/18 00:02:18;;;;;;;12.13;10.68;;;;;;;;;;5052723;28;20111;-74
2023/01/18 00:04:43;;;;;;;8.02;6.15;;;;;;;;;;5054978;28;20036;-75
2023/01/18 00:07:09;;;;;;;10.55;9.45;;;;;;;;;;5057564;28;20403;-74
2023/01/18 00:09:34;;;;;;;4.43;4.03;;;;;;;;;;5054586;28;20111;-75
2023/01/18 00:11:59;;;;;;;3.72;2.40;;;;;;;;;;5062106;28;20766;-77
2023/01/18 00:14:25;;;;;;;4.60;4.20;;;;;;;;;;5060664;28;20051;-75
2023/01/18 00:16:50;;;;;;;7.53;6.72;;;;;;;;;;5050773;28;20040;-75
2023/01/18 00:19:15;;;;;;;5.90;5.28;;;;;;;;;;5052281;28;20043;-77
2023/01/18 00:21:40;;;;;;;3.30;1.88;;;;;;;;;;5059376;28;20492;-75
2023/01/18 00:24:09;;;;;;;8.65;6.78;;;;;;;;;;5051486;28;20051;-75
2023/01/18 00:26:35;;;;;;;9.97;7.93;;;;;;;;;;5050790;28;20051;-75
2023/01/18 00:29:00;;;;;;;26.88;20.95;;;;;;;;;;5060563;28;20336;-78
2023/01/18 00:31:26;;;;;;;28.15;19.70;;;;;;;;;;5052365;28;20451;-75
2023/01/18 00:33:51;;;;;;;21.00;14.00;;;;;;;;;;5048080;28;20477;-74
2023/01/18 00:36:17;;;;;;;19.48;13.48;;;;;;;;;;5061695;28;20032;-75
2023/01/18 00:38:42;;;;;;;6.70;4.55;;;;;;;;;;5061480;28;20043;-74
2023/01/18 00:41:07;;;;;;;22.05;16.42;;;;;;;;;;5058476;28;20102;-75
2023/01/18 00:43:39;;;;;;;8.38;7.32;;;;;;;;;;5062155;28;20025;-74
2023/01/18 00:46:08;;;;;;;6.15;4.95;;;;;;;;;;5056420;28;20035;-75
2023/01/18 00:48:33;;;;;;;8.18;6.80;;;;;;;;;;5053643;28;20111;-74
2023/01/18 00:50:59;;;;;;;14.65;12.07;;;;;;;;;;5047133;28;20412;-74
2023/01/18 00:53:24;;;;;;;8.55;6.88;;;;;;;;;;5060805;28;20110;-75
2023/01/18 00:55:49;;;;;;;8.50;6.13;;;;;;;;;;5061479;28;20024;-77
2023/01/18 00:58:15;;;;;;;6.20;5.38;;;;;;;;;;5062502;28;20025;-75
2023/01/18 01:00:40;;;;;;;4.88;4.38;;;;;;;;;;5062062;28;20024;-75
2023/01/18 01:03:06;;;;;;;6.68;5.60;;;;;;;;;;5060388;28;20021;-75
2023/01/18 01:08:19;;;;;;;8.82;6.90;;;;;;;;;;5056502;28;20074;-74
2023/01/18 01:10:46;;;;;;;14.98;12.38;;;;;;;;;;5062692;28;20428;-74
2023/01/18 01:26:52;;;;;;;11.27;8.65;;;;;;;;;;5064301;28;20069;-75
2023/01/18 01:29:17;;;;;;;20.00;14.05;;;;;;;;;;5065217;28;20355;-76
2023/01/18 01:31:42;;;;;;;20.02;14.32;;;;;;;;;;5060258;28;20359;-76
2023/01/18 01:34:08;;;;;;;5.57;4.30;;;;;;;;;;5058952;28;20059;-75
2023/01/18 01:36:33;;;;;;;8.35;6.82;;;;;;;;;;5062756;28;20028;-74
2023/01/18 01:38:59;;;;;;;3.15;2.58;;;;;;;;;;5054767;28;20033;-75
2023/01/18 01:41:28;;;;;;;23.15;18.90;;;;;;;;;;5064505;28;20531;-76
2023/01/18 01:43:55;;;;;;;38.03;29.30;;;;;;;;;;5064013;28;20350;-76
2023/01/18 01:46:39;;;;;;;5.88;4.40;;;;;;;;;;5064912;28;20042;-75
2023/01/18 01:49:04;;;;;;;14.63;12.15;;;;;;;;;;5063734;28;20450;-75
2023/01/18 01:51:30;;;;;;;8.30;6.00;;;;;;;;;;5059652;28;20024;-74
2023/01/18 01:53:58;;;;;;;8.20;7.03;;;;;;;;;;5051757;28;20024;-75
2023/01/18 01:56:23;;;;;;;9.13;7.88;;;;;;;;;;5064644;28;20032;-77
2023/01/18 01:58:49;;;;;;;9.80;8.02;;;;;;;;;;5064521;28;20025;-75
2023/01/18 02:01:14;;;;;;;7.90;6.82;;;;;;;;;;5061118;28;20024;-76
2023/01/18 02:03:41;;;;;;;12.90;11.57;;;;;;;;;;5049783;28;20784;-75
2023/01/18 02:06:30;;;;;;;11.98;8.98;;;;;;;;;;5043054;28;20036;-76
2023/01/18 02:08:58;;;;;;;3.10;2.75;;;;;;;;;;5050068;28;20042;-75
2023/01/18 02:11:23;;;;;;;4.82;3.38;;;;;;;;;;5064620;28;20105;-76
2023/01/18 02:13:48;;;;;;;3.95;2.72;;;;;;;;;;5063855;28;20038;-75
2023/01/18 02:16:17;;;;;;;3.20;1.80;;;;;;;;;;5065208;28;20028;-75
2023/01/18 02:19:12;;;;;;;3.35;2.35;;;;;;;;;;5062867;28;20021;-75
2023/01/18 02:21:39;;;;;;;4.60;3.17;;;;;;;;;;5062580;28;20042;-74
2023/01/18 02:24:07;;;;;;;6.22;5.63;;;;;;;;;;5050535;28;20119;-74
2023/01/18 02:26:52;;;;;;;4.50;3.67;;;;;;;;;;5060208;28;20021;-76
2023/01/18 02:29:23;;;;;;;5.93;3.90;;;;;;;;;;5062486;28;20139;-75
2023/01/18 02:31:57;;;;;;;7.55;5.95;;;;;;;;;;5053466;28;20035;-75
2023/01/18 02:34:29;;;;;;;6.50;5.43;;;;;;;;;;5062341;28;20032;-75
2023/01/18 02:37:00;;;;;;;6.32;4.32;;;;;;;;;;5060493;28;20029;-75
2023/01/18 02:39:43;;;;;;;6.43;5.22;;;;;;;;;;5051171;28;20024;-76
2023/01/18 02:47:57;;;;;;;7.50;3.28;;;;;;;;;;5064115;28;20130;-76
2023/01/18 02:50:24;;;;;;;4.63;3.83;;;;;;;;;;5063771;28;20024;-76
2023/01/18 02:52:50;;;;;;;9.23;6.70;;;;;;;;;;5059463;28;20103;-75
2023/01/18 02:55:22;;;;;;;12.05;8.57;;;;;;;;;;5055529;28;20028;-75
2023/01/18 02:57:47;;;;;;;7.90;6.88;;;;;;;;;;5063657;28;20020;-75
2023/01/18 03:00:16;;;;;;;7.53;6.03;;;;;;;;;;5063238;28;20119;-74
2023/01/18 03:02:42;;;;;;;5.37;4.10;;;;;;;;;;5051472;28;20166;-74
2023/01/18 03:05:09;;;;;;;3.83;2.85;;;;;;;;;;5064049;28;20035;-75
2023/01/18 03:07:40;;;;;;;5.13;2.85;;;;;;;;;;5064402;28;20043;-76
2023/01/18 03:10:06;;;;;;;1.95;1.20;;;;;;;;;;5053443;28;20166;-77
2023/01/18 03:12:47;;;;;;;3.65;1.90;;;;;;;;;;5060364;28;20092;-74
2023/01/18 03:15:12;;;;;;;3.08;1.90;;;;;;;;;;5062474;28;20089;-77
2023/01/18 03:17:42;;;;;;;3.13;2.00;;;;;;;;;;5063437;28;20021;-75
2023/01/18 03:20:13;;;;;;;15.43;9.40;;;;;;;;;;5060681;28;20024;-76
2023/01/18 03:25:47;;;;;;;4.80;2.97;;;;;;;;;;5047909;28;20359;-75
2023/01/18 03:34:01;;;;;;;4.45;2.45;;;;;;;;;;5063369;28;20058;-74
2023/01/18 03:36:34;;;;;;;11.43;9.20;;;;;;;;;;5061524;28;20063;-75
2023/01/18 03:39:02;;;;;;;7.30;5.25;;;;;;;;;;5062350;28;20055;-74
2023/01/18 03:41:29;;;;;;;13.82;10.07;;;;;;;;;;5063198;28;20471;-77
2023/01/18 03:43:57;;;;;;;11.25;7.35;;;;;;;;;;5062036;28;20036;-74
2023/01/18 03:46:22;;;;;;;13.10;9.30;;;;;;;;;;5062976;28;20028;-74
2023/01/18 03:48:47;;;;;;;12.77;9.73;;;;;;;;;;5062196;28;20293;-75
2023/01/18 03:51:25;;;;;;;10.18;7.55;;;;;;;;;;5062490;28;20097;-76
2023/01/18 03:53:54;;;;;;;10.68;7.68;;;;;;;;;;5060480;28;20021;-76
2023/01/18 03:56:26;;;;;;;17.35;7.35;;;;;;;;;;5062554;28;20090;-77
2023/01/18 03:58:54;;;;;;;4.68;3.67;;;;;;;;;;5048763;28;20038;-74
2023/01/18 04:01:20;;;;;;;7.47;5.20;;;;;;;;;;5061337;28;20137;-74
2023/01/18 04:03:45;;;;;;;7.93;5.97;;;;;;;;;;5062128;28;20407;-77
2023/01/18 04:06:10;;;;;;;6.25;4.80;;;;;;;;;;5051621;28;20035;-75
2023/01/18 04:08:36;;;;;;;7.10;5.00;;;;;;;;;;5062667;28;20336;-76
2023/01/18 04:11:01;;;;;;;11.68;7.15;;;;;;;;;;5060886;28;20039;-75
2023/01/18 04:13:26;;;;;;;9.27;5.13;;;;;;;;;;5054200;28;20209;-75
2023/01/18 04:15:52;;;;;;;9.85;5.25;;;;;;;;;;5052627;28;20469;-76
2023/01/18 04:18:17;;;;;;;8.98;4.88;;;;;;;;;;5057906;28;20363;-74
2023/01/18 04:20:42;;;;;;;5.65;3.22;;;;;;;;;;5061092;28;20029;-74
2023/01/18 04:23:07;;;;;;;8.05;4.90;;;;;;;;;;5063902;28;20028;-75
2023/01/18 04:25:33;;;;;;;4.35;3.05;;;;;;;;;;5052273;28;20451;-75
2023/01/18 04:27:58;;;;;;;5.10;2.33;;;;;;;;;;5061395;28;20047;-74
2023/01/18 04:30:23;;;;;;;4.38;2.58;;;;;;;;;;5050749;28;20036;-75
2023/01/18 04:32:49;;;;;;;3.20;1.90;;;;;;;;;;5057836;28;20058;-76
2023/01/18 04:35:14;;;;;;;4.53;2.53;;;;;;;;;;5055435;28;20107;-77
2023/01/18 04:37:39;;;;;;;9.30;3.63;;;;;;;;;;5061934;28;20032;-77
2023/01/18 04:40:05;;;;;;;4.35;2.83;;;;;;;;;;5062314;28;20052;-74
2023/01/18 04:42:30;;;;;;;4.03;2.00;;;;;;;;;;5061043;28;20062;-76
2023/01/18 04:44:55;;;;;;;5.88;3.20;;;;;;;;;;5062811;28;20040;-75
2023/01/18 04:47:21;;;;;;;1.83;1.27;;;;;;;;;;5064962;28;20112;-73
2023/01/18 04:49:46;;;;;;;2.55;1.35;;;;;;;;;;5053982;28;20025;-74
2023/01/18 04:52:11;;;;;;;1.50;1.40;;;;;;;;;;5065494;28;20051;-76
2023/01/18 04:54:37;;;;;;;2.70;1.33;;;;;;;;;;5053348;28;20017;-74
2023/01/18 04:57:02;;;;;;;6.85;3.03;;;;;;;;;;5052704;28;20043;-75
2023/01/18 04:59:27;;;;;;;3.92;1.83;;;;;;;;;;5050514;28;20031;-75
2023/01/18 05:01:53;;;;;;;2.05;1.08;;;;;;;;;;5053000;28;20380;-74
2023/01/18 05:04:18;;;;;;;3.13;1.52;;;;;;;;;;5052341;28;20074;-76
2023/01/18 05:06:44;;;;;;;1.52;0.93;;;;;;;;;;5057056;28;20424;-74
2023/01/18 05:09:12;;;;;;;4.05;1.80;;;;;;;;;;5065347;28;20456;-77
2023/01/18 05:11:37;;;;;;;3.45;2.45;;;;;;;;;;5065110;28;20033;-75
2023/01/18 05:14:03;;;;;;;4.88;3.33;;;;;;;;;;5065106;28;20293;-75
2023/01/18 05:16:28;;;;;;;4.60;3.05;;;;;;;;;;5065319;28;20032;-76
2023/01/18 05:18:53;;;;;;;2.53;1.42;;;;;;;;;;5065499;28;20514;-75
2023/01/18 05:21:18;;;;;;;2.45;1.77;;;;;;;;;;5064898;28;20024;-77
2023/01/18 05:23:44;;;;;;;2.38;1.42;;;;;;;;;;5051916;28;20080;-77
2023/01/18 05:26:14;;;;;;;3.38;2.35;;;;;;;;;;5065632;28;20830;-75
2023/01/18 05:28:40;;;;;;;3.33;1.30;;;;;;;;;;5063377;28;20069;-75
2023/01/18 05:31:05;;;;;;;2.45;1.10;;;;;;;;;;5065007;28;20160;-75
2023/01/18 05:33:30;;;;;;;3.83;2.60;;;;;;;;;;5062925;28;20024;-75
2023/01/18 05:35:56;;;;;;;3.35;1.60;;;;;;;;;;5063310;28;20042;-75
2023/01/18 05:38:21;;;;;;;4.35;2.13;;;;;;;;;;5058597;28;20023;-75
2023/01/18 05:40:48;;;;;;;4.63;2.72;;;;;;;;;;5058241;28;20044;-77
2023/01/18 05:43:15;;;;;;;5.60;3.35;;;;;;;;;;5054197;28;20367;-75
2023/01/18 05:45:41;;;;;;;5.20;2.13;;;;;;;;;;5063277;28;20064;-76
2023/01/18 05:48:06;;;;;;;5.63;3.00;;;;;;;;;;5063403;28;20028;-77
2023/01/18 05:50:31;;;;;;;3.67;2.35;;;;;;;;;;5064067;28;20024;-75
2023/01/18 05:52:57;;;;;;;4.65;1.92;;;;;;;;;;5064673;28;20044;-75
2023/01/18 05:55:23;;;;;;;4.07;2.30;;;;;;;;;;5065572;28;20891;-76
2023/01/18 05:57:48;;;;;;;10.50;4.55;;;;;;;;;;5063618;28;20036;-77
2023/01/18 06:00:13;;;;;;;6.03;2.83;;;;;;;;;;5065104;28;20020;-77
2023/01/18 06:02:39;;;;;;;4.28;3.15;;;;;;;;;;5063801;28;20100;-75
2023/01/18 06:05:04;;;;;;;6.13;2.50;;;;;;;;;;5063821;28;20040;-76
2023/01/18 06:07:29;;;;;;;9.25;4.00;;;;;;;;;;5065552;28;20461;-75
2023/01/18 06:09:55;;;;;;;1.23;1.13;;;;;;;;;;5063481;28;20459;-76
2023/01/18 06:12:20;;;;;;;3.78;2.28;;;;;;;;;;5063551;28;20503;-76
2023/01/18 06:14:46;;;;;;;55.28;26.52;;;;;;;;;;5063952;28;20024;-76
2023/01/18 06:17:11;;;;;;;40.05;27.58;;;;;;;;;;5064476;28;20449;-77
2023/01/18 06:19:36;;;;;;;21.50;10.25;;;;;;;;;;5064167;28;20024;-76
2023/01/18 06:22:02;;;;;;;3.88;2.20;;;;;;;;;;5065518;28;20021;-76
2023/01/18 06:24:27;;;;;;;5.38;3.88;;;;;;;;;;5063634;28;20028;-77
2023/01/18 06:26:52;;;;;;;11.10;8.32;;;;;;;;;;5064128;28;20036;-77
2023/01/18 06:29:17;;;;;;;7.55;4.53;;;;;;;;;;5064589;28;20447;-76
2023/01/18 06:31:43;;;;;;;11.05;8.77;;;;;;;;;;5063543;28;20028;-73
2023/01/18 06:34:08;;;;;;;10.02;5.13;;;;;;;;;;5064925;28;20063;-73
2023/01/18 06:36:37;;;;;;;5.68;2.72;;;;;;;;;;5065281;28;20332;-73
2023/01/18 06:39:02;;;;;;;3.00;1.43;;;;;;;;;;5064785;28;20060;-76
2023/01/18 06:41:28;;;;;;;8.18;4.07;;;;;;;;;;5063816;28;20397;-74
2023/01/18 06:43:53;;;;;;;13.52;7.55;;;;;;;;;;5064940;28;20086;-73
2023/01/18 06:46:19;;;;;;;8.05;5.60;;;;;;;;;;5063180;28;20036;-73
2023/01/18 06:48:44;;;;;;;51.33;24.95;;;;;;;;;;5064322;28;20186;-74
2023/01/18 06:51:11;;;;;;;2.63;1.52;;;;;;;;;;5062603;28;20028;-74
2023/01/18 06:53:36;;;;;;;3.63;1.98;;;;;;;;;;5062349;28;20495;-76
2023/01/18 06:56:02;;;;;;;3.45;2.15;;;;;;;;;;5062092;28;20111;-73
2023/01/18 06:58:28;;;;;;;5.82;3.08;;;;;;;;;;5063992;28;20225;-75
2023/01/18 07:00:58;;;;;;;3.97;1.80;;;;;;;;;;5062350;28;20025;-72
2023/01/18 07:03:24;;;;;;;4.47;2.72;;;;;;;;;;5063464;28;20050;-72
2023/01/18 07:05:51;;;;;;;11.73;5.53;;;;;;;;;;5063278;28;20110;-70
2023/01/18 07:08:19;;;;;;;7.47;4.07;;;;;;;;;;5061869;28;20084;-76
2023/01/18 07:10:45;;;;;;;5.72;1.65;;;;;;;;;;5063286;28;20021;-74
2023/01/18 07:13:10;;;;;;;4.78;1.92;;;;;;;;;;5063846;28;20043;-74
2023/01/18 07:15:35;;;;;;;6.55;2.40;;;;;;;;;;5062079;28;20361;-73
2023/01/18 07:18:00;;;;;;;9.20;5.13;;;;;;;;;;5062983;28;20071;-73
2023/01/18 07:20:26;;;;;;;4.35;3.15;;;;;;;;;;5062984;28;20032;-73
2023/01/18 07:22:51;;;;;;;4.80;2.50;;;;;;;;;;5062843;28;20016;-76
2023/01/18 07:25:17;;;;;;;3.15;2.40;;;;;;;;;;5062444;28;20020;-75
2023/01/18 07:27:43;;;;;;;3.60;1.70;;;;;;;;;;5062476;28;20106;-74
2023/01/18 07:30:11;;;;;;;8.15;6.15;;;;;;;;;;5064076;28;20035;-74
2023/01/18 07:32:36;;;;;;;10.20;7.43;;;;;;;;;;5062560;28;20356;-77
2023/01/18 07:35:02;;;;;;;12.90;10.88;;;;;;;;;;5062028;28;20035;-73
2023/01/18 07:37:27;;;;;;;4.72;3.50;;;;;;;;;;5062284;28;20390;-75
2023/01/18 07:39:52;;;;;;;31.83;13.88;;;;;;;;;;5063433;28;20052;-74
2023/01/18 07:42:18;;;;;;;7.15;4.43;;;;;;;;;;5053106;28;20044;-75
2023/01/18 07:44:43;;;;;;;5.60;2.65;;;;;;;;;;5048603;28;20400;-74
2023/01/18 07:47:08;;;;;;;6.97;2.38;;;;;;;;;;5046697;28;20096;-74
2023/01/18 07:49:35;;;;;;;2.72;2.20;;;;;;;;;;5046542;28;20059;-75
2023/01/18 07:52:01;;;;;;;9.43;6.05;;;;;;;;;;5049634;28;20362;-75
2023/01/18 07:54:27;;;;;;;4.65;3.20;;;;;;;;;;5047538;28;20033;-74
2023/01/18 07:56:52;;;;;;;5.10;3.90;;;;;;;;;;5047677;28;21064;-75
2023/01/18 07:59:17;;;;;;;11.95;6.47;;;;;;;;;;5047854;28;20035;-74
2023/01/18 08:01:43;;;;;;;11.52;9.65;;;;;;;;;;5049980;28;20356;-74
2023/01/18 08:04:08;;;;;;;14.10;11.25;;;;;;;;;;5046857;28;20096;-74
2023/01/18 08:06:34;;;;;;;11.88;9.57;;;;;;;;;;5048849;28;20089;-76
2023/01/18 08:08:59;;;;;;;13.38;7.65;;;;;;;;;;5044715;28;20134;-73
2023/01/18 08:11:24;;;;;;;2.88;2.55;;;;;;;;;;5048086;28;20435;-75
2023/01/18 08:13:51;;;;;;;4.63;2.63;;;;;;;;;;5049586;28;20524;-73
2023/01/18 08:16:17;;;;;;;4.28;3.40;;;;;;;;;;5050230;28;20035;-72
2023/01/18 08:18:44;;;;;;;5.53;2.30;;;;;;;;;;5046894;28;20029;-73
2023/01/18 08:21:10;;;;;;;8.05;4.20;;;;;;;;;;5048796;28;20048;-74
2023/01/18 08:23:36;;;;;;;2.13;1.25;;;;;;;;;;5047600;28;20171;-75
2023/01/18 08:26:02;;;;;;;5.40;2.45;;;;;;;;;;5046834;28;20414;-75
2023/01/18 08:28:27;;;;;;;7.53;3.20;;;;;;;;;;5048679;28;20471;-73
2023/01/18 08:31:03;;;;;;;3.33;1.92;;;;;;;;;;5050393;28;20094;-73
2023/01/18 08:33:28;;;;;;;4.68;3.08;;;;;;;;;;5048609;28;20025;-74
2023/01/18 08:35:54;;;;;;;7.43;5.07;;;;;;;;;;5050371;28;20047;-74
2023/01/18 08:38:19;;;;;;;6.28;3.20;;;;;;;;;;5048230;28;20040;-76
2023/01/18 08:40:44;;;;;;;4.97;2.30;;;;;;;;;;5047643;28;20401;-73
2023/01/18 08:43:10;;;;;;;6.85;2.17;;;;;;;;;;5047226;28;20123;-76
2023/01/18 08:45:35;;;;;;;5.28;2.25;;;;;;;;;;5048278;28;20025;-75
2023/01/18 08:48:02;;;;;;;4.40;2.35;;;;;;;;;;5050161;28;20071;-75
2023/01/18 08:50:28;;;;;;;10.18;5.47;;;;;;;;;;5053213;28;20123;-74
2023/01/18 08:52:54;;;;;;;6.15;3.70;;;;;;;;;;5059535;28;20480;-76
2023/01/18 08:55:20;;;;;;;6.32;3.13;;;;;;;;;;5052754;28;20481;-75
2023/01/18 08:57:45;;;;;;;8.60;2.15;;;;;;;;;;5056577;28;20844;-75
2023/01/18 09:00:11;;;;;;;7.15;1.80;;;;;;;;;;5047511;28;20033;-73
2023/01/18 09:02:37;;;;;;;3.90;2.33;;;;;;;;;;5048664;28;20020;-76
2023/01/18 09:05:02;;;;;;;5.50;2.88;;;;;;;;;;5048039;28;20032;-74
2023/01/18 09:07:27;;;;;;;6.93;3.05;;;;;;;;;;5050025;28;20447;-76
2023/01/18 09:09:53;;;;;;;5.63;1.92;;;;;;;;;;5049266;28;20098;-75
2023/01/18 09:12:18;;;;;;;5.38;2.13;;;;;;;;;;5049866;28;20029;-75
2023/01/18 09:14:43;;;;;;;6.35;5.18;;;;;;;;;;5048315;28;20028;-76
2023/01/18 09:17:09;;;;;;;12.57;9.57;;;;;;;;;;5046355;28;20032;-75
2023/01/18 09:19:34;;;;;;;5.88;3.00;;;;;;;;;;5048851;28;20440;-76
2023/01/18 09:21:59;;;;;;;3.28;1.80;;;;;;;;;;5049219;28;20028;-74
2023/01/18 09:24:25;;;;;;;5.82;2.15;;;;;;;;;;5047141;28;20025;-75
2023/01/18 09:26:50;;;;;;;4.22;2.08;;;;;;;;;;5048402;28;20070;-76
2023/01/18 09:29:16;;;;;;;6.53;2.70;;;;;;;;;;5047748;28;20048;-76
2023/01/18 09:31:42;;;;;;;3.58;1.83;;;;;;;;;;5049235;28;20025;-75
2023/01/18 09:34:08;;;;;;;5.38;2.63;;;;;;;;;;5051998;28;20098;-76
2023/01/18 09:36:33;;;;;;;5.35;2.42;;;;;;;;;;5051201;28;20124;-76
2023/01/18 09:38:58;;;;;;;4.93;2.50;;;;;;;;;;5052983;28;20036;-76
2023/01/18 09:41:35;;;;;;;3.92;1.80;;;;;;;;;;5051860;28;20044;-77
2023/01/18 09:44:20;;;;;;;11.88;7.30;;;;;;;;;;5051076;28;20036;-75
2023/01/18 09:46:48;;;;;;;3.47;2.75;;;;;;;;;;5050704;28;20675;-77
2023/01/18 09:49:34;;;;;;;7.30;4.43;;;;;;;;;;5052113;28;20428;-76
2023/01/18 09:52:18;;;;;;;5.65;3.33;;;;;;;;;;5052607;28;20037;-77
2023/01/18 09:54:51;;;;;;;7.75;2.72;;;;;;;;;;5051607;28;20024;-78
2023/01/18 09:57:22;;;;;;;4.82;2.13;;;;;;;;;;5050681;28;20048;-77
2023/01/18 09:59:53;;;;;;;3.22;1.83;;;;;;;;;;5049469;28;20050;-78
2023/01/18 10:02:22;;;;;;;3.78;1.52;;;;;;;;;;5053583;28;20538;-76
2023/01/18 10:05:08;;;;;;;6.60;2.13;;;;;;;;;;5052476;28;20078;-76
2023/01/18 10:07:34;;;;;;;4.18;2.63;;;;;;;;;;5051606;28;20117;-76
2023/01/18 10:10:00;;;;;;;5.78;3.92;;;;;;;;;;5052796;28;20605;-77
2023/01/18 10:12:31;;;;;;;13.10;3.63;;;;;;;;;;5052459;28;20111;-77
2023/01/18 10:15:09;;;;;;;5.32;3.22;;;;;;;;;;5050611;28;20113;-77
2023/01/18 10:17:34;;;;;;;8.63;5.53;;;;;;;;;;5050629;28;20025;-75
2023/01/18 10:20:00;;;;;;;6.37;3.60;;;;;;;;;;5051327;28;20448;-76
2023/01/18 10:22:29;;;;;;;4.10;2.88;;;;;;;;;;5053417;28;20285;-76
2023/01/18 10:25:00;;;;;;;7.72;6.28;;;;;;;;;;5049099;28;20127;-76
2023/01/18 10:27:44;;;;;;;9.65;6.20;;;;;;;;;;5051874;28;20043;-77
2023/01/18 10:30:15;;;;;;;12.65;8.90;;;;;;;;;;5049975;28;20107;-76
2023/01/18 10:32:44;;;;;;;19.33;12.65;;;;;;;;;;5052121;28;20078;-77
2023/01/18 10:35:15;;;;;;;7.85;4.07;;;;;;;;;;5051256;28;20093;-77
2023/01/18 10:37:45;;;;;;;8.70;5.72;;;;;;;;;;5050390;28;20064;-76
2023/01/18 10:40:12;;;;;;;8.52;5.03;;;;;;;;;;5050662;28;20403;-77
2023/01/18 10:42:55;;;;;;;12.77;7.72;;;;;;;;;;5051463;28;20052;-75
2023/01/18 10:45:23;;;;;;;4.30;3.70;;;;;;;;;;5052688;28;20036;-75
2023/01/18 10:47:50;;;;;;;12.93;9.38;;;;;;;;;;5050801;28;20024;-76
2023/01/18 10:50:21;;;;;;;9.00;6.80;;;;;;;;;;5051864;28;20398;-75
2023/01/18 10:52:46;;;;;;;6.15;3.50;;;;;;;;;;5051559;28;20028;-75
2023/01/18 10:55:16;;;;;;;10.25;6.65;;;;;;;;;;5051316;28;20024;-76
2023/01/18 10:57:42;;;;;;;;;;;;;;;;;;5048906;28;20107;-74
2023/01/18 11:00:17;;;;;;;9.43;5.63;;;;;;;;;;5051355;28;19999;-76
2023/01/18 11:02:43;;;;;;;7.80;5.63;;;;;;;;;;5050659;28;20051;-77
2023/01/18 11:05:29;;;;;;;8.15;5.18;;;;;;;;;;5046593;28;20032;-75
2023/01/18 11:08:13;;;;;;;10.48;6.05;;;;;;;;;;5049525;28;20078;-77
2023/01/18 11:10:42;;;;;;;27.30;16.88;;;;;;;;;;5050010;28;20379;-74
2023/01/18 11:13:36;;;;;;;11.25;7.90;;;;;;;;;;5051846;28;20028;-75
2023/01/18 11:16:03;;;;;;;7.18;5.10;;;;;;;;;;5053737;28;20048;-75
2023/01/18 11:18:29;;;;;;;30.95;18.08;;;;;;;;;;5050727;28;20033;-75
2023/01/18 11:20:54;;;;;;;11.82;7.47;;;;;;;;;;5048608;28;20020;-76
2023/01/18 11:23:21;;;;;;;234.00;66.93;;;;;;;;;;5048421;28;20028;-74
2023/01/18 11:26:06;;;;;;;301.80;104.95;;;;;;;;;;5049530;28;20459;-75
2023/01/18 11:28:43;;;;;;;472.73;186.50;;;;;;;;;;5047577;28;20018;-75
2023/01/18 11:31:10;;;;;;;264.08;117.30;;;;;;;;;;5050772;28;20127;-75
2023/01/18 11:33:39;;;;;;;42.15;30.70;;;;;;;;;;5049501;28;20032;-78
2023/01/18 11:36:05;;;;;;;24.60;19.98;;;;;;;;;;5048550;28;20081;-77
2023/01/18 11:38:32;;;;;;;11.50;7.30;;;;;;;;;;5050005;28;20036;-75
2023/01/18 11:41:05;;;;;;;23.92;18.35;;;;;;;;;;5051764;28;20024;-75
2023/01/18 11:43:32;;;;;;;18.13;13.52;;;;;;;;;;5048820;28;20032;-76
2023/01/18 11:46:00;;;;;;;11.48;8.00;;;;;;;;;;5049264;28;20448;-77
2023/01/18 11:48:32;;;;;;;17.80;12.25;;;;;;;;;;5050629;28;20032;-76
2023/01/18 11:51:09;;;;;;;23.50;17.40;;;;;;;;;;5051237;28;20047;-76
2023/01/18 11:53:44;;;;;;;15.80;13.63;;;;;;;;;;5047697;28;20050;-77
2023/01/18 11:56:28;;;;;;;15.95;9.88;;;;;;;;;;5053450;28;20096;-75
2023/01/18 11:58:53;;;;;;;7.75;5.47;;;;;;;;;;5050064;28;20040;-76
2023/01/18 12:01:20;;;;;;;7.75;5.95;;;;;;;;;;5050219;28;20094;-76
2023/01/18 12:03:55;;;;;;;9.68;6.65;;;;;;;;;;5049689;28;20044;-76
2023/01/18 12:06:20;;;;;;;8.23;7.05;;;;;;;;;;5049644;28;20516;-76
2023/01/18 12:08:51;;;;;;;17.58;12.45;;;;;;;;;;5051308;28;20020;-76
2023/01/18 12:11:21;;;;;;;12.00;8.40;;;;;;;;;;5048412;28;20035;-75
2023/01/18 12:13:59;;;;;;;14.90;8.40;;;;;;;;;;5049091;28;20127;-76
2023/01/18 12:16:29;;;;;;;29.23;20.52;;;;;;;;;;5051427;28;20351;-76
2023/01/18 12:19:04;;;;;;;20.13;15.38;;;;;;;;;;5049322;28;20467;-75
2023/01/18 12:21:48;;;;;;;20.40;14.68;;;;;;;;;;5049640;28;20021;-75
2023/01/18 12:24:29;;;;;;;15.85;12.57;;;;;;;;;;5047494;28;20044;-76
2023/01/18 12:26:59;;;;;;;13.73;10.60;;;;;;;;;;5050403;28;20070;-76
2023/01/18 12:29:45;;;;;;;8.98;6.00;;;;;;;;;;5049071;28;20034;-75
2023/01/18 12:32:20;;;;;;;9.80;6.70;;;;;;;;;;5048105;28;20409;-75
2023/01/18 12:34:54;;;;;;;5.82;4.55;;;;;;;;;;5048463;28;20028;-76
2023/01/18 12:37:22;;;;;;;16.92;13.98;;;;;;;;;;5048889;28;20036;-76
2023/01/18 12:40:06;;;;;;;6.93;4.97;;;;;;;;;;5047319;28;20453;-77
2023/01/18 12:42:58;;;;;;;7.95;6.93;;;;;;;;;;5046798;28;20052;-75
2023/01/18 12:45:24;;;;;;;9.45;7.30;;;;;;;;;;5038467;28;20049;-76
2023/01/18 12:47:52;;;;;;;11.27;8.20;;;;;;;;;;5049473;28;20146;-76
2023/01/18 12:50:28;;;;;;;8.00;6.85;;;;;;;;;;5055910;28;20261;-77
2023/01/18 12:52:57;;;;;;;6.40;4.85;;;;;;;;;;5062523;28;20035;-77
2023/01/18 12:55:24;;;;;;;7.72;6.50;;;;;;;;;;5063435;28;20427;-76
2023/01/18 12:57:52;;;;;;;12.25;7.70;;;;;;;;;;5052201;28;20040;-77
2023/01/18 13:00:30;;;;;;;10.65;8.23;;;;;;;;;;5058496;28;20028;-77
2023/01/18 13:02:56;;;;;;;17.15;12.93;;;;;;;;;;5060446;28;20059;-76
2023/01/18 13:05:42;;;;;;;12.95;8.80;;;;;;;;;;5063004;28;20076;-77
2023/01/18 13:08:28;;;;;;;10.13;7.97;;;;;;;;;;5066141;28;20063;-79
2023/01/18 13:10:54;;;;;;;24.27;13.73;;;;;;;;;;5066112;28;20181;-76
2023/01/18 13:13:24;;;;;;;13.02;10.85;;;;;;;;;;5066806;28;20067;-76
2023/01/18 13:15:49;;;;;;;;;;;;;;;;;;5067286;28;20083;-76
2023/01/18 13:18:25;;;;;;;9.25;8.35;;;;;;;;;;5066276;28;20486;-76
2023/01/18 13:21:19;;;;;;;7.13;6.43;;;;;;;;;;5064982;28;20066;-76
2023/01/18 13:23:51;;;;;;;15.85;12.48;;;;;;;;;;5065436;28;20017;-77
2023/01/18 13:26:16;;;;;;;8.43;7.60;;;;;;;;;;5067526;28;20098;-75
2023/01/18 13:28:42;;;;;;;11.03;8.03;;;;;;;;;;5066529;28;20436;-77
2023/01/18 13:31:08;;;;;;;11.32;8.45;;;;;;;;;;5065655;28;20340;-76
2023/01/18 13:33:39;;;;;;;8.65;7.10;;;;;;;;;;5065697;28;20431;-75
2023/01/18 13:36:06;;;;;;;5.55;4.72;;;;;;;;;;5067471;28;20035;-75
2023/01/18 13:38:37;;;;;;;9.45;8.40;;;;;;;;;;5066505;28;20032;-77
2023/01/18 13:41:04;;;;;;;11.32;8.20;;;;;;;;;;5068044;28;20418;-77
2023/01/18 13:43:35;;;;;;;7.57;6.60;;;;;;;;;;5066512;28;20067;-76
2023/01/18 13:46:06;;;;;;;11.13;9.95;;;;;;;;;;5065211;28;20036;-76
2023/01/18 13:48:40;;;;;;;5.28;3.92;;;;;;;;;;5065533;28;20032;-76
2023/01/18 13:51:05;;;;;;;7.07;6.32;;;;;;;;;;5064954;28;20027;-75
2023/01/18 13:53:47;;;;;;;6.68;4.80;;;;;;;;;;5066215;28;20028;-77
2023/01/18 13:56:22;;;;;;;7.90;5.13;;;;;;;;;;5065917;28;20032;-75
2023/01/18 13:58:56;;;;;;;10.13;3.95;;;;;;;;;;5065708;28;20486;-75
2023/01/18 14:01:22;;;;;;;5.82;3.78;;;;;;;;;;5066629;28;20060;-75
2023/01/18 14:03:49;;;;;;;4.78;4.00;;;;;;;;;;5064460;28;20542;-76
2023/01/18 14:06:35;;;;;;;5.60;4.30;;;;;;;;;;5065586;28;20127;-78
2023/01/18 14:09:05;;;;;;;5.82;3.35;;;;;;;;;;5064445;28;20060;-75
2023/01/18 14:11:33;;;;;;;9.63;7.75;;;;;;;;;;5063959;28;20025;-75
2023/01/18 14:13:58;;;;;;;28.02;19.92;;;;;;;;;;5065593;28;20036;-74
2023/01/18 14:16:25;;;;;;;24.42;16.20;;;;;;;;;;5064355;28;20090;-75
2023/01/18 14:18:51;;;;;;;16.80;12.55;;;;;;;;;;5062687;28;20016;-75
2023/01/18 14:21:20;;;;;;;12.05;7.20;;;;;;;;;;5053223;28;20027;-77
2023/01/18 14:23:45;;;;;;;15.48;12.43;;;;;;;;;;5057877;28;20024;-75
2023/01/18 14:26:12;;;;;;;12.20;8.52;;;;;;;;;;5065183;28;20376;-76
2023/01/18 14:28:48;;;;;;;33.90;22.25;;;;;;;;;;5063830;28;20028;-75
2023/01/18 14:31:17;;;;;;;49.22;28.02;;;;;;;;;;5051235;28;20021;-76
2023/01/18 14:33:42;;;;;;;41.25;31.48;;;;;;;;;;5063288;28;20047;-75
2023/01/18 14:36:21;;;;;;;33.70;24.25;;;;;;;;;;5057979;28;20364;-75
2023/01/18 14:39:05;;;;;;;31.15;25.83;;;;;;;;;;5061575;28;20439;-77
2023/01/18 14:41:31;;;;;;;64.20;44.85;;;;;;;;;;5063201;28;20051;-75
2023/01/18 14:43:56;;;;;;;95.72;58.08;;;;;;;;;;5052038;28;20036;-76
2023/01/18 14:46:23;;;;;;;51.17;34.22;;;;;;;;;;5051685;28;20551;-76
2023/01/18 14:48:53;;;;;;;146.40;81.15;;;;;;;;;;5053486;28;20440;-77
2023/01/18 14:51:21;;;;;;;169.80;95.93;;;;;;;;;;5058491;28;20045;-76
2023/01/18 14:53:49;;;;;;;280.77;149.65;;;;;;;;;;5063410;28;20081;-75
2023/01/18 14:56:19;;;;;;;204.93;115.05;;;;;;;;;;5064576;28;20028;-74
2023/01/18 14:58:50;;;;;;;156.10;86.97;;;;;;;;;;5060984;28;20093;-75
2023/01/18 15:01:36;;;;;;;204.85;122.97;;;;;;;;;;5056257;28;20028;-77
2023/01/18 15:04:06;;;;;;;140.88;88.38;;;;;;;;;;5051389;28;20470;-77
2023/01/18 15:06:38;;;;;;;118.78;74.28;;;;;;;;;;5052198;28;23318;-77
2023/01/18 15:09:06;;;;;;;67.25;51.95;;;;;;;;;;5052275;28;20078;-77
2023/01/18 15:11:32;;;;;;;84.07;70.70;;;;;;;;;;5050876;28;20016;-77
2023/01/18 15:13:57;;;;;;;230.88;135.68;;;;;;;;;;5051705;28;20428;-76
2023/01/18 15:16:25;;;;;;;445.17;224.52;;;;;;;;;;5050568;28;20110;-77